Strona główna
METAR-TAF:

METAR-TAF

Lotnisko :

Warsaw Municipal Airport

Warsaw, Indiana, Stany Zjednoczone

Szerokość geograficzna: 41-16-28N, Długość geograficzna: 085-50-24W, wysokość: 259 m

Aktualna obserwacja pogody

Raport powstał 23 minut temu, godzina 06:35 UTC
Wiatr 4 kt od południe
Temperatura 0°C
Wilgotność 64%
Ciśnienie 1022 hPa
Widzialność: 16.1 km
bezchmurnie

METAR: KASW 230635Z AUTO 19004KT 10SM CLR 00/M06 A3017 RMK AO2

czas: 01:58 (06:58 UTC)


TAF: brakujący

Obserwacja i prognoza pogody dla ponad 4000 lotnisk (raport METAR i TAF).

Dostępne stacje oznaczono żółtymi i czerwonymi punktami na mapie.

Najedź kursorem aby zobaczyć nazwę stacji.

Kliknij aby zobaczyć obserwacje i prognozy pogody.

Aby zmienić mapę: kliknij na zielony przycisk z czarnym krzyżykiem, aby powiększyć; na zielony przycisk z myślnikiem, aby pomniejszyć; na zielone strzałki, aby przejść do map sąsiednich.


METAR-TAF: